createdAt,value
2015-10-09T00:00:01.830Z,99.99
2015-10-09T00:00:14.190Z,99.99
2015-10-09T00:00:26.549Z,99.99
2015-10-09T00:00:38.927Z,99.99
2015-10-09T00:00:51.271Z,99.99
2015-10-09T00:01:03.646Z,99.99
2015-10-09T00:01:16.021Z,99.99
2015-10-09T00:01:28.396Z,99.99
2015-10-09T00:01:40.774Z,99.99
2015-10-09T00:01:53.165Z,99.99
2015-10-09T00:02:05.571Z,99.99
2015-10-09T00:02:17.961Z,99.99
2015-10-09T00:02:30.352Z,99.99
2015-10-09T00:02:42.730Z,99.99
2015-10-09T00:02:55.074Z,99.99
2015-10-09T00:03:07.433Z,99.99
2015-10-09T00:03:19.777Z,99.99
2015-10-09T00:03:32.121Z,99.99
2015-10-09T00:03:44.482Z,99.99
2015-10-09T00:03:56.841Z,99.99
2015-10-09T00:04:09.201Z,99.99
2015-10-09T00:04:21.560Z,99.99
2015-10-09T00:04:33.951Z,99.99
2015-10-09T00:04:46.329Z,99.99
2015-10-09T00:04:58.719Z,99.99
2015-10-09T00:05:11.110Z,99.99
2015-10-09T00:05:23.501Z,99.99
2015-10-09T00:05:35.891Z,99.99
2015-10-09T00:05:48.269Z,99.99
2015-10-09T00:06:00.644Z,99.99
2015-10-09T00:06:12.988Z,99.99
2015-10-09T00:06:25.347Z,99.99
2015-10-09T00:06:37.707Z,99.99
2015-10-09T00:06:50.085Z,99.99
2015-10-09T00:07:02.444Z,99.99
2015-10-09T00:07:14.804Z,99.99
2015-10-09T00:07:27.163Z,99.99
2015-10-09T00:07:39.538Z,99.99
2015-10-09T00:07:51.916Z,99.99
2015-10-09T00:08:04.291Z,99.99
2015-10-09T00:08:16.682Z,99.99
2015-10-09T00:08:29.072Z,99.99
2015-10-09T00:08:41.432Z,99.99
2015-10-09T00:08:53.809Z,99.99
2015-10-09T00:09:06.184Z,99.99
2015-10-09T00:09:18.543Z,99.99
2015-10-09T00:09:30.918Z,99.99
2015-10-09T00:09:42.559Z,99.99
2015-10-09T00:09:54.937Z,99.99
2015-10-09T00:10:07.296Z,99.99
2015-10-09T00:10:19.671Z,99.99
2015-10-09T00:10:32.062Z,99.99
2015-10-09T00:10:44.421Z,99.99
2015-10-09T00:10:56.111Z,99.99
2015-10-09T00:11:08.502Z,99.99
2015-10-09T00:11:20.893Z,99.99
2015-10-09T00:11:33.315Z,99.99
2015-10-09T00:11:45.674Z,99.99
2015-10-09T00:11:58.035Z,99.99
2015-10-09T00:12:10.410Z,99.99
2015-10-09T00:12:22.770Z,99.99
2015-10-09T00:12:35.145Z,99.99
2015-10-09T00:12:47.504Z,99.99
2015-10-09T00:12:59.866Z,99.99
2015-10-09T00:13:12.241Z,99.99
2015-10-09T00:13:24.632Z,99.99
2015-10-09T00:13:37.007Z,99.99
2015-10-09T00:13:49.382Z,99.99
2015-10-09T00:14:01.790Z,99.99
2015-10-09T00:14:14.181Z,99.99
2015-10-09T00:14:26.587Z,99.99
2015-10-09T00:14:38.993Z,99.99
2015-10-09T00:14:51.388Z,99.99
2015-10-09T00:15:03.747Z,99.99
2015-10-09T00:15:16.122Z,99.99
2015-10-09T00:15:28.466Z,99.99
2015-10-09T00:15:40.826Z,99.99
2015-10-09T00:15:53.218Z,99.99
2015-10-09T00:16:04.859Z,99.99
2015-10-09T00:16:17.234Z,99.99
2015-10-09T00:16:29.593Z,99.99
2015-10-09T00:16:41.968Z,99.99
2015-10-09T00:16:53.627Z,99.99
2015-10-09T00:17:06.034Z,99.99
2015-10-09T00:17:18.409Z,99.99
2015-10-09T00:17:30.815Z,99.99
2015-10-09T00:17:43.190Z,99.99
2015-10-09T00:17:55.599Z,99.99
2015-10-09T00:18:07.943Z,99.99
2015-10-09T00:18:20.318Z,99.99
2015-10-09T00:18:32.677Z,99.99
2015-10-09T00:18:45.052Z,99.99
2015-10-09T00:18:57.414Z,99.99
2015-10-09T00:19:09.773Z,99.99
2015-10-09T00:19:22.132Z,99.99
2015-10-09T00:19:34.476Z,99.99
2015-10-09T00:19:46.851Z,99.99
2015-10-09T00:19:59.229Z,99.99
2015-10-09T00:20:11.604Z,99.99
2015-10-09T00:20:23.995Z,99.99
2015-10-09T00:20:36.401Z,99.99
2015-10-09T00:20:48.792Z,99.99
2015-10-09T00:21:01.201Z,99.99
2015-10-09T00:21:13.576Z,99.99
2015-10-09T00:21:25.935Z,99.99
2015-10-09T00:21:38.310Z,99.99
2015-10-09T00:21:50.670Z,99.99
2015-10-09T00:22:03.048Z,99.99
2015-10-09T00:22:15.407Z,99.99
2015-10-09T00:22:27.782Z,99.99
2015-10-09T00:22:40.141Z,99.99
2015-10-09T00:22:52.532Z,99.99
2015-10-09T00:23:04.925Z,99.99
2015-10-09T00:23:17.315Z,99.99
2015-10-09T00:23:29.675Z,99.99
2015-10-09T00:23:42.034Z,99.99
2015-10-09T00:23:54.393Z,99.99
2015-10-09T00:24:06.771Z,99.99
2015-10-09T00:24:19.131Z,99.99
2015-10-09T00:24:31.490Z,99.99
2015-10-09T00:24:43.865Z,99.99
2015-10-09T00:24:56.240Z,99.99
2015-10-09T00:25:08.649Z,99.99
2015-10-09T00:25:21.040Z,99.99
2015-10-09T00:25:33.462Z,99.99
2015-10-09T00:25:45.853Z,99.99
2015-10-09T00:25:58.228Z,99.99
2015-10-09T00:26:10.606Z,99.99
2015-10-09T00:26:22.949Z,99.99
2015-10-09T00:26:35.324Z,99.99
2015-10-09T00:26:47.684Z,99.99
2015-10-09T00:27:00.059Z,99.99
2015-10-09T00:27:12.436Z,99.99
2015-10-09T00:27:24.795Z,99.99
2015-10-09T00:27:37.170Z,99.99
2015-10-09T00:27:49.561Z,99.99
2015-10-09T00:28:01.936Z,99.99
2015-10-09T00:28:14.329Z,99.99
2015-10-09T00:28:26.720Z,99.99
2015-10-09T00:28:39.126Z,99.99
2015-10-09T00:28:50.814Z,99.99
2015-10-09T00:29:03.173Z,99.99
2015-10-09T00:29:15.551Z,99.99
2015-10-09T00:29:27.910Z,99.99
2015-10-09T00:29:40.285Z,99.99
2015-10-09T00:29:52.645Z,99.99
2015-10-09T00:30:05.020Z,99.99
2015-10-09T00:30:17.381Z,99.99
2015-10-09T00:30:29.741Z,99.99
2015-10-09T00:30:42.116Z,99.99
2015-10-09T00:30:54.475Z,99.99
2015-10-09T00:31:06.881Z,99.99
2015-10-09T00:31:19.290Z,99.99
2015-10-09T00:31:31.650Z,99.99
2015-10-09T00:31:44.009Z,99.99
2015-10-09T00:31:56.369Z,99.99
2015-10-09T00:32:08.744Z,99.99
2015-10-09T00:32:21.122Z,99.99
2015-10-09T00:32:33.481Z,99.99
2015-10-09T00:32:45.840Z,99.99
2015-10-09T00:32:58.215Z,99.99
2015-10-09T00:33:10.575Z,99.99
2015-10-09T00:33:22.968Z,99.99
2015-10-09T00:33:35.343Z,99.99
2015-10-09T00:33:47.718Z,99.99
2015-10-09T00:34:00.125Z,99.99
2015-10-09T00:34:12.515Z,99.99
2015-10-09T00:34:24.878Z,99.99
2015-10-09T00:34:37.237Z,99.99
2015-10-09T00:34:49.612Z,99.99
2015-10-09T00:35:01.987Z,99.99
2015-10-09T00:35:14.333Z,99.99
2015-10-09T00:35:26.723Z,99.99
2015-10-09T00:35:39.114Z,99.99
2015-10-09T00:35:51.489Z,99.99
2015-10-09T00:36:03.880Z,99.99
2015-10-09T00:36:16.289Z,99.99
2015-10-09T00:36:28.679Z,99.99
2015-10-09T00:36:41.039Z,99.99
2015-10-09T00:36:53.398Z,99.99
2015-10-09T00:37:04.336Z,99.99
2015-10-09T00:37:16.698Z,99.99
2015-10-09T00:37:29.057Z,99.99
2015-10-09T00:37:41.432Z,99.99
2015-10-09T00:37:53.776Z,99.99
2015-10-09T00:38:06.136Z,99.99
2015-10-09T00:38:18.514Z,99.99
2015-10-09T00:38:30.904Z,99.99
2015-10-09T00:38:43.279Z,99.99
2015-10-09T00:38:55.670Z,99.99
2015-10-09T00:39:08.060Z,99.99
2015-10-09T00:39:20.454Z,99.99
2015-10-09T00:39:32.845Z,99.99
2015-10-09T00:39:45.220Z,99.99
2015-10-09T00:39:56.860Z,99.99
2015-10-09T00:40:09.235Z,99.99
2015-10-09T00:40:21.581Z,99.99
2015-10-09T00:40:33.940Z,99.99
2015-10-09T00:40:46.284Z,99.99
2015-10-09T00:40:58.628Z,99.99
2015-10-09T00:41:10.987Z,99.99
2015-10-09T00:41:23.365Z,99.99
2015-10-09T00:41:35.725Z,99.99
2015-10-09T00:41:48.115Z,99.99
2015-10-09T00:42:00.506Z,99.99
2015-10-09T00:42:12.897Z,99.99
2015-10-09T00:42:25.305Z,99.99
2015-10-09T00:42:37.664Z,99.99
2015-10-09T00:42:50.024Z,99.99
2015-10-09T00:43:02.414Z,99.99
2015-10-09T00:43:14.774Z,99.99
2015-10-09T00:43:27.136Z,99.99
2015-10-09T00:43:39.511Z,99.99
2015-10-09T00:43:51.886Z,99.99
2015-10-09T00:44:04.245Z,99.99
2015-10-09T00:44:16.636Z,99.99
2015-10-09T00:44:28.998Z,99.99
2015-10-09T00:44:41.389Z,99.99
2015-10-09T00:44:53.780Z,99.99
2015-10-09T00:45:06.170Z,99.99
2015-10-09T00:45:18.561Z,99.99
2015-10-09T00:45:30.939Z,99.99
2015-10-09T00:45:43.298Z,99.99
2015-10-09T00:45:55.673Z,99.99
2015-10-09T00:46:08.033Z,99.99
2015-10-09T00:46:20.392Z,99.99
2015-10-09T00:46:32.770Z,99.98
2015-10-09T00:46:44.426Z,99.79
2015-10-09T00:46:56.786Z,99.51
2015-10-09T00:47:09.161Z,99.41
2015-10-09T00:47:21.536Z,99.32
2015-10-09T00:47:33.913Z,98.75
2015-10-09T00:47:46.319Z,98.94
2015-10-09T00:47:58.694Z,98.14
2015-10-09T00:48:11.100Z,98.94
2015-10-09T00:48:23.506Z,98.75
2015-10-09T00:48:35.884Z,98.9
2015-10-09T00:48:48.228Z,99.32
2015-10-09T00:49:00.603Z,99.32
2015-10-09T00:49:12.962Z,99.98
2015-10-09T00:49:25.322Z,99.99
2015-10-09T00:49:37.683Z,99.98
2015-10-09T00:49:50.058Z,99.99
2015-10-09T00:50:02.433Z,99.99
2015-10-09T00:50:14.824Z,99.6
2015-10-09T00:50:27.199Z,99.99
2015-10-09T00:50:39.609Z,99.99
2015-10-09T00:50:52.015Z,99.7
2015-10-09T00:51:04.375Z,99.41
2015-10-09T00:51:16.781Z,99.32
2015-10-09T00:51:29.140Z,98.85
2015-10-09T00:51:41.517Z,98.85
2015-10-09T00:51:53.861Z,97.43
2015-10-09T00:52:06.236Z,97.81
2015-10-09T00:52:18.595Z,97.67
2015-10-09T00:52:30.252Z,97.24
2015-10-09T00:52:42.614Z,97.24
2015-10-09T00:52:54.989Z,96.77
2015-10-09T00:53:07.364Z,96.3
2015-10-09T00:53:19.755Z,96.49
2015-10-09T00:53:32.161Z,96.39
2015-10-09T00:53:44.554Z,96.77
2015-10-09T00:53:56.913Z,96.68
2015-10-09T00:54:09.288Z,96.73
2015-10-09T00:54:21.647Z,96.39
2015-10-09T00:54:34.010Z,96.39
2015-10-09T00:54:46.385Z,96.54
2015-10-09T00:54:58.041Z,96.58
2015-10-09T00:55:10.400Z,96.54
2015-10-09T00:55:22.775Z,96.3
2015-10-09T00:55:35.138Z,96.49
2015-10-09T00:55:47.528Z,96.68
2015-10-09T00:55:59.919Z,96.39
2015-10-09T00:56:12.325Z,96.49
2015-10-09T00:56:24.716Z,96.68
2015-10-09T00:56:37.125Z,96.86
2015-10-09T00:56:49.484Z,97.34
2015-10-09T00:57:01.141Z,97.29
2015-10-09T00:57:13.500Z,97.24
2015-10-09T00:57:25.859Z,97.05
2015-10-09T00:57:38.237Z,97.34
2015-10-09T00:57:50.597Z,96.96
2015-10-09T00:58:02.956Z,97.62
2015-10-09T00:58:15.316Z,97.24
2015-10-09T00:58:27.706Z,97.43
2015-10-09T00:58:40.083Z,97.29
2015-10-09T00:58:52.474Z,97.58
2015-10-09T00:59:04.864Z,97.15
2015-10-09T00:59:17.255Z,97.05
2015-10-09T00:59:28.927Z,96.39
2015-10-09T00:59:41.289Z,96.2
2015-10-09T00:59:53.649Z,95.45
2015-10-09T01:00:06.039Z,95.64
2015-10-09T01:00:18.383Z,95.64
2015-10-09T01:00:30.742Z,95.45
2015-10-09T01:00:43.135Z,94.89
2015-10-09T01:00:55.494Z,95.17
2015-10-09T01:01:07.869Z,94.51
2015-10-09T01:01:20.244Z,94.51
2015-10-09T01:01:32.619Z,94.51
2015-10-09T01:01:45.014Z,94.22
2015-10-09T01:01:57.248Z,94.22
2015-10-09T01:02:09.655Z,94.03
2015-10-09T01:02:22.045Z,93.84
2015-10-09T01:02:34.452Z,93.75
2015-10-09T01:02:46.814Z,93.66
2015-10-09T01:02:59.173Z,93.7
2015-10-09T01:03:11.548Z,93.8
2015-10-09T01:03:23.908Z,93.66
2015-10-09T01:03:36.267Z,94.08
2015-10-09T01:03:48.628Z,94.46
2015-10-09T01:04:00.988Z,94.65
2015-10-09T01:04:13.347Z,95.12
2015-10-09T01:04:25.722Z,94.93
2015-10-09T01:04:38.097Z,95.31
2015-10-09T01:04:50.491Z,95.68
2015-10-09T01:05:02.725Z,95.17
2015-10-09T01:05:15.100Z,95.12
2015-10-09T01:05:27.444Z,94.37
2015-10-09T01:05:39.819Z,94.37
2015-10-09T01:05:52.196Z,94.74
2015-10-09T01:06:04.555Z,94.74
2015-10-09T01:06:16.915Z,95.31
2015-10-09T01:06:29.290Z,94.84
2015-10-09T01:06:41.633Z,95.5
2015-10-09T01:06:54.027Z,95.87
2015-10-09T01:07:06.386Z,96.25
2015-10-09T01:07:18.777Z,96.35
2015-10-09T01:07:31.152Z,96.77
2015-10-09T01:07:43.558Z,97.1
2015-10-09T01:07:55.952Z,96.91
2015-10-09T01:08:08.311Z,97.2
2015-10-09T01:08:20.686Z,96.54
2015-10-09T01:08:33.046Z,96.68
2015-10-09T01:08:45.421Z,96.11
2015-10-09T01:08:57.782Z,95.78
2015-10-09T01:09:10.157Z,95.68
2015-10-09T01:09:22.516Z,95.17
2015-10-09T01:09:34.876Z,95.12
2015-10-09T01:09:47.238Z,94.65
2015-10-09T01:09:59.613Z,94.27
2015-10-09T01:10:12.004Z,94.74
2015-10-09T01:10:24.394Z,94.37
2015-10-09T01:10:36.801Z,94.65
2015-10-09T01:10:49.210Z,95.12
2015-10-09T01:11:01.585Z,95.03
2015-10-09T01:11:13.960Z,95.21
2015-10-09T01:11:26.647Z,94.93
2015-10-09T01:11:39.007Z,95.03
2015-10-09T01:11:50.666Z,95.12
2015-10-09T01:12:03.041Z,94.84
2015-10-09T01:12:15.400Z,94.65
2015-10-09T01:12:27.760Z,94.37
2015-10-09T01:12:40.166Z,94.56
2015-10-09T01:12:52.527Z,94.84
2015-10-09T01:13:04.918Z,94.74
2015-10-09T01:13:17.293Z,95.21
2015-10-09T01:13:29.684Z,94.93
2015-10-09T01:13:42.090Z,95.5
2015-10-09T01:13:54.484Z,95.5
2015-10-09T01:14:06.843Z,95.59
2015-10-09T01:14:19.202Z,95.68
2015-10-09T01:14:31.562Z,95.59
2015-10-09T01:14:43.937Z,96.35
2015-10-09T01:14:56.315Z,96.35
2015-10-09T01:15:08.674Z,96.16
2015-10-09T01:15:21.049Z,96.54
2015-10-09T01:15:33.424Z,96.44
2015-10-09T01:15:45.815Z,96.54
2015-10-09T01:15:58.207Z,96.63
2015-10-09T01:16:10.598Z,96.63
2015-10-09T01:16:23.004Z,97.2
2015-10-09T01:16:35.395Z,97.1
2015-10-09T01:16:47.770Z,96.82
2015-10-09T01:17:00.132Z,97.2
2015-10-09T01:17:12.492Z,97.29
2015-10-09T01:17:24.851Z,97.39
2015-10-09T01:17:37.195Z,97.39
2015-10-09T01:17:49.554Z,97.48
2015-10-09T01:18:01.901Z,97.2
2015-10-09T01:18:14.260Z,96.44
2015-10-09T01:18:26.620Z,96.54
2015-10-09T01:18:39.010Z,96.35
2015-10-09T01:18:51.401Z,95.87
2015-10-09T01:19:03.809Z,95.87
2015-10-09T01:19:16.184Z,95.68
2015-10-09T01:19:28.590Z,95.68
2015-10-09T01:19:40.997Z,95.59
2015-10-09T01:19:53.356Z,95.4
2015-10-09T01:20:05.719Z,95.21
2015-10-09T01:20:18.094Z,95.12
2015-10-09T01:20:30.469Z,94.93
2015-10-09T01:20:42.844Z,95.03
2015-10-09T01:20:55.219Z,94.18
2015-10-09T01:21:07.581Z,94.56
2015-10-09T01:21:19.237Z,94.37
2015-10-09T01:21:31.612Z,94.37
2015-10-09T01:21:43.987Z,94.37
2015-10-09T01:21:56.362Z,94.93
2015-10-09T01:22:08.756Z,94.65
2015-10-09T01:22:21.146Z,94.74
2015-10-09T01:22:33.568Z,95.31
2015-10-09T01:22:45.959Z,95.03
2015-10-09T01:22:58.318Z,94.93
2015-10-09T01:23:10.680Z,95.31
2015-10-09T01:23:23.040Z,95.68
2015-10-09T01:23:35.415Z,95.59
2015-10-09T01:23:47.790Z,95.31
2015-10-09T01:24:00.149Z,94.84
2015-10-09T01:24:12.527Z,94.37
2015-10-09T01:24:24.887Z,95.03
2015-10-09T01:24:37.262Z,94.27
2015-10-09T01:24:49.621Z,94.18
2015-10-09T01:25:01.996Z,94.08
2015-10-09T01:25:14.390Z,94.56
2015-10-09T01:25:26.796Z,94.08
2015-10-09T01:25:39.186Z,94.56
2015-10-09T01:25:51.593Z,94.37
2015-10-09T01:26:03.983Z,93.89
2015-10-09T01:26:16.376Z,94.08
2015-10-09T01:26:28.751Z,94.56
2015-10-09T01:26:41.095Z,94.18
2015-10-09T01:26:53.470Z,94.46
2015-10-09T01:27:05.829Z,94.08
2015-10-09T01:27:18.191Z,94.18
2015-10-09T01:27:30.582Z,94.46
2015-10-09T01:27:42.941Z,94.08
2015-10-09T01:27:55.301Z,92.94
2015-10-09T01:28:07.679Z,92.66
2015-10-09T01:28:19.351Z,92.47
2015-10-09T01:28:31.773Z,92.76
2015-10-09T01:28:44.163Z,92.76
2015-10-09T01:28:56.538Z,92.76
2015-10-09T01:29:08.978Z,92.47
2015-10-09T01:29:21.321Z,92.76
2015-10-09T01:29:33.696Z,92.57
2015-10-09T01:29:46.056Z,92.85
2015-10-09T01:29:58.415Z,93.13
2015-10-09T01:30:10.778Z,93.32
2015-10-09T01:30:23.137Z,93.89
2015-10-09T01:30:35.496Z,94.08
2015-10-09T01:30:47.871Z,94.37
2015-10-09T01:31:00.246Z,93.99
2015-10-09T01:31:12.624Z,94.27
2015-10-09T01:31:24.999Z,94.46
2015-10-09T01:31:37.390Z,94.46
2015-10-09T01:31:49.781Z,95.03
2015-10-09T01:32:02.171Z,94.37
2015-10-09T01:32:14.580Z,94.56
2015-10-09T01:32:26.971Z,94.18
2015-10-09T01:32:39.330Z,94.46
2015-10-09T01:32:51.690Z,94.08
2015-10-09T01:33:04.065Z,93.7
2015-10-09T01:33:16.426Z,93.8
2015-10-09T01:33:28.817Z,93.8
2015-10-09T01:33:41.192Z,93.7
2015-10-09T01:33:53.551Z,93.89
2015-10-09T01:34:05.911Z,94.18
2015-10-09T01:34:18.273Z,94.18
2015-10-09T01:34:30.648Z,94.08
2015-10-09T01:34:43.023Z,94.08
2015-10-09T01:34:55.429Z,94.08
2015-10-09T01:35:07.820Z,94.56
2015-10-09T01:35:20.212Z,94.27
2015-10-09T01:35:31.884Z,95.03
2015-10-09T01:35:44.244Z,94.74
2015-10-09T01:35:56.603Z,94.46
2015-10-09T01:36:08.962Z,94.65
2015-10-09T01:36:21.340Z,94.74
2015-10-09T01:36:33.700Z,94.74
2015-10-09T01:36:46.075Z,95.12
2015-10-09T01:36:58.434Z,95.21
2015-10-09T01:37:10.794Z,95.68
2015-10-09T01:37:23.172Z,96.35
2015-10-09T01:37:35.547Z,96.73
2015-10-09T01:37:47.922Z,96.63
2015-10-09T01:38:00.359Z,97.1
2015-10-09T01:38:12.750Z,97.1
2015-10-09T01:38:25.158Z,97.77
2015-10-09T01:38:36.877Z,98.14
2015-10-09T01:38:49.220Z,98.05
2015-10-09T01:39:01.595Z,97.67
2015-10-09T01:39:13.955Z,98.05
2015-10-09T01:39:26.333Z,98.52
2015-10-09T01:39:38.692Z,99.18
2015-10-09T01:39:51.052Z,98.9
2015-10-09T01:40:03.427Z,99.37
2015-10-09T01:40:15.770Z,99.46
2015-10-09T01:40:28.148Z,99.99
2015-10-09T01:40:40.539Z,99.56
2015-10-09T01:40:52.914Z,99.94
2015-10-09T01:41:05.320Z,99.99
2015-10-09T01:41:17.711Z,99.99
2015-10-09T01:41:30.104Z,99.99
2015-10-09T01:41:42.479Z,99.99
2015-10-09T01:41:54.854Z,99.99
2015-10-09T01:42:07.214Z,99.99
2015-10-09T01:42:19.589Z,99.99
2015-10-09T01:42:31.967Z,99.99
2015-10-09T01:42:44.342Z,99.99
2015-10-09T01:42:56.732Z,99.99
2015-10-09T01:43:09.139Z,99.99
2015-10-09T01:43:21.529Z,99.99
2015-10-09T01:43:33.891Z,99.99
2015-10-09T01:43:46.266Z,99.99
2015-10-09T01:43:58.625Z,99.99
2015-10-09T01:44:11.000Z,99.99
2015-10-09T01:44:23.359Z,99.99
2015-10-09T01:44:35.722Z,99.99
2015-10-09T01:44:48.097Z,99.99
2015-10-09T01:45:00.456Z,99.99
2015-10-09T01:45:12.831Z,99.99
2015-10-09T01:45:25.208Z,99.99
2015-10-09T01:45:37.583Z,99.99
2015-10-09T01:45:49.989Z,99.99
2015-10-09T01:46:02.396Z,99.99
2015-10-09T01:46:14.802Z,99.99
2015-10-09T01:46:27.181Z,99.99
2015-10-09T01:46:39.540Z,99.99
2015-10-09T01:46:51.900Z,99.99
2015-10-09T01:47:04.275Z,99.99
2015-10-09T01:47:16.650Z,99.99
2015-10-09T01:47:29.012Z,99.99
2015-10-09T01:47:41.371Z,99.99
2015-10-09T01:47:53.731Z,99.99
2015-10-09T01:48:06.090Z,99.99
2015-10-09T01:48:18.481Z,99.99
2015-10-09T01:48:30.858Z,99.99
2015-10-09T01:48:43.248Z,99.99
2015-10-09T01:48:55.655Z,99.99
2015-10-09T01:49:08.030Z,99.99
2015-10-09T01:49:20.405Z,99.99
2015-10-09T01:49:32.767Z,99.99
2015-10-09T01:49:45.158Z,99.99
2015-10-09T01:49:57.517Z,99.99
2015-10-09T01:50:09.876Z,99.99
2015-10-09T01:50:22.236Z,99.99
2015-10-09T01:50:34.613Z,99.99
2015-10-09T01:50:46.972Z,99.99
2015-10-09T01:50:59.363Z,99.99
2015-10-09T01:51:11.738Z,99.99
2015-10-09T01:51:24.097Z,99.99
2015-10-09T01:51:36.491Z,99.99
2015-10-09T01:51:48.897Z,99.99
2015-10-09T01:52:01.256Z,99.99
2015-10-09T01:52:13.616Z,99.99
2015-10-09T01:52:25.975Z,99.99
2015-10-09T01:52:38.353Z,99.99
2015-10-09T01:52:50.713Z,99.99
2015-10-09T01:53:03.088Z,99.99
2015-10-09T01:53:15.447Z,99.99
2015-10-09T01:53:27.869Z,99.99
2015-10-09T01:53:40.247Z,99.99
2015-10-09T01:53:52.622Z,99.99
2015-10-09T01:54:04.997Z,99.99
2015-10-09T01:54:17.372Z,99.99
2015-10-09T01:54:29.762Z,99.99
2015-10-09T01:54:42.172Z,99.99
2015-10-09T01:54:54.578Z,99.99
2015-10-09T01:55:06.234Z,99.99
2015-10-09T01:55:18.594Z,99.99
2015-10-09T01:55:30.953Z,99.99
2015-10-09T01:55:43.330Z,99.99
2015-10-09T01:55:55.689Z,99.99
2015-10-09T01:56:08.049Z,99.99
2015-10-09T01:56:20.408Z,99.99
2015-10-09T01:56:32.752Z,99.99
2015-10-09T01:56:45.114Z,99.99
2015-10-09T01:56:57.489Z,99.99
2015-10-09T01:57:09.880Z,99.99
2015-10-09T01:57:22.255Z,99.99
2015-10-09T01:57:34.661Z,99.99
2015-10-09T01:57:47.070Z,99.99
2015-10-09T01:57:59.477Z,99.99
2015-10-09T01:58:11.867Z,99.99
2015-10-09T01:58:24.211Z,99.99
2015-10-09T01:58:36.572Z,99.99
2015-10-09T01:58:48.932Z,99.99
2015-10-09T01:59:01.307Z,99.99
2015-10-09T01:59:13.666Z,99.99
2015-10-09T01:59:26.041Z,99.99
2015-10-09T01:59:38.403Z,99.99
2015-10-09T01:59:50.763Z,99.99
2015-10-09T02:00:03.138Z,99.99
2015-10-09T02:00:15.513Z,99.99
2015-10-09T02:00:27.903Z,99.99
2015-10-09T02:00:40.297Z,99.99
2015-10-09T02:00:52.688Z,99.99
2015-10-09T02:01:05.110Z,99.99
2015-10-09T02:01:17.469Z,99.99
2015-10-09T02:01:29.844Z,99.99
2015-10-09T02:01:42.206Z,99.99
2015-10-09T02:01:54.566Z,99.99
2015-10-09T02:02:06.941Z,99.99
2015-10-09T02:02:19.316Z,99.99
2015-10-09T02:02:31.675Z,99.99
2015-10-09T02:02:44.036Z,99.99
2015-10-09T02:02:56.427Z,99.99
2015-10-09T02:03:08.802Z,99.99
2015-10-09T02:03:21.177Z,99.99
2015-10-09T02:03:33.568Z,99.99
2015-10-09T02:03:45.961Z,99.99
2015-10-09T02:03:57.508Z,99.99
2015-10-09T02:04:09.899Z,99.99
2015-10-09T02:04:22.274Z,99.99
2015-10-09T02:04:34.649Z,99.99
2015-10-09T02:04:47.011Z,99.99
2015-10-09T02:04:59.371Z,99.99
2015-10-09T02:05:11.746Z,99.99
2015-10-09T02:05:24.105Z,99.99
2015-10-09T02:05:36.308Z,99.99
2015-10-09T02:05:48.669Z,99.99
2015-10-09T02:06:01.029Z,99.99
2015-10-09T02:06:13.404Z,99.99
2015-10-09T02:06:25.779Z,99.99
2015-10-09T02:06:38.169Z,99.99
2015-10-09T02:06:50.564Z,99.99
2015-10-09T02:07:02.970Z,99.99
2015-10-09T02:07:15.330Z,99.99
2015-10-09T02:07:27.689Z,99.99
2015-10-09T02:07:40.048Z,99.99
2015-10-09T02:07:52.410Z,99.99
2015-10-09T02:08:04.785Z,99.99
2015-10-09T02:08:17.144Z,99.99
2015-10-09T02:08:29.519Z,99.99
2015-10-09T02:08:41.910Z,99.99
2015-10-09T02:08:54.288Z,99.99
2015-10-09T02:09:06.741Z,99.99
2015-10-09T02:09:19.100Z,99.99
2015-10-09T02:09:31.460Z,99.99
2015-10-09T02:09:43.837Z,99.99
2015-10-09T02:09:56.196Z,99.99
2015-10-09T02:10:08.555Z,99.99
2015-10-09T02:10:20.930Z,99.99
2015-10-09T02:10:33.290Z,99.99
2015-10-09T02:10:45.668Z,99.99
2015-10-09T02:10:58.027Z,99.99
2015-10-09T02:11:10.402Z,99.99
2015-10-09T02:11:22.793Z,99.99
2015-10-09T02:11:35.183Z,99.99
2015-10-09T02:11:47.577Z,99.99
2015-10-09T02:11:59.983Z,99.99
2015-10-09T02:12:12.374Z,99.99
2015-10-09T02:12:24.796Z,99.99
2015-10-09T02:12:37.155Z,99.99
2015-10-09T02:12:49.517Z,99.99
2015-10-09T02:13:01.892Z,99.99
2015-10-09T02:13:14.251Z,99.99
2015-10-09T02:13:26.610Z,99.99
2015-10-09T02:13:38.970Z,99.99
2015-10-09T02:13:51.348Z,99.99
2015-10-09T02:14:03.691Z,99.99
2015-10-09T02:14:16.082Z,99.99
2015-10-09T02:14:28.457Z,99.99
2015-10-09T02:14:40.832Z,99.99
2015-10-09T02:14:53.241Z,99.99
2015-10-09T02:15:05.648Z,99.99
2015-10-09T02:15:18.038Z,99.99
2015-10-09T02:15:30.444Z,99.99
2015-10-09T02:15:42.804Z,99.99
2015-10-09T02:15:55.166Z,99.99
2015-10-09T02:16:07.526Z,99.99
2015-10-09T02:16:19.885Z,99.99
2015-10-09T02:16:32.260Z,99.99
2015-10-09T02:16:44.619Z,99.99
2015-10-09T02:16:56.996Z,99.99
2015-10-09T02:17:09.356Z,99.99
2015-10-09T02:17:21.715Z,99.99
2015-10-09T02:17:34.090Z,99.99
2015-10-09T02:17:46.324Z,99.99
2015-10-09T02:17:58.702Z,99.99
2015-10-09T02:18:11.093Z,99.99
2015-10-09T02:18:23.499Z,99.99
2015-10-09T02:18:35.906Z,99.99
2015-10-09T02:18:47.562Z,99.99
2015-10-09T02:18:59.936Z,99.99
2015-10-09T02:19:12.311Z,99.99
2015-10-09T02:19:24.655Z,99.99
2015-10-09T02:19:37.030Z,99.99
2015-10-09T02:19:49.389Z,99.99
2015-10-09T02:20:01.736Z,99.99
2015-10-09T02:20:14.096Z,99.99
2015-10-09T02:20:26.486Z,99.99
2015-10-09T02:20:38.158Z,99.99
2015-10-09T02:20:50.533Z,99.99
2015-10-09T02:21:02.926Z,99.99
2015-10-09T02:21:15.317Z,99.99
2015-10-09T02:21:27.708Z,99.99
2015-10-09T02:21:40.067Z,99.99
2015-10-09T02:21:52.426Z,99.99
2015-10-09T02:22:04.789Z,99.99
2015-10-09T02:22:17.149Z,99.99
2015-10-09T02:22:29.524Z,99.99
2015-10-09T02:22:41.899Z,99.99
2015-10-09T02:22:54.258Z,99.99
2015-10-09T02:23:06.605Z,99.99
2015-10-09T02:23:18.980Z,99.99
2015-10-09T02:23:31.355Z,99.99
2015-10-09T02:23:43.745Z,99.99
2015-10-09T02:23:56.136Z,99.99
2015-10-09T02:24:08.502Z,99.99
2015-10-09T02:24:20.892Z,99.99
2015-10-09T02:24:33.252Z,99.99
2015-10-09T02:24:45.611Z,99.99
2015-10-09T02:24:57.986Z,99.99
2015-10-09T02:25:10.343Z,99.99
2015-10-09T02:25:22.718Z,99.99
2015-10-09T02:25:35.061Z,99.99
2015-10-09T02:25:47.436Z,99.99
2015-10-09T02:25:59.811Z,99.99
2015-10-09T02:26:12.183Z,99.99
2015-10-09T02:26:24.558Z,99.99
2015-10-09T02:26:36.949Z,99.99
2015-10-09T02:26:49.340Z,99.99
2015-10-09T02:27:01.727Z,99.99
2015-10-09T02:27:14.133Z,99.99
2015-10-09T02:27:26.524Z,99.99
2015-10-09T02:27:38.899Z,99.99
2015-10-09T02:27:51.258Z,99.99
2015-10-09T02:28:03.616Z,99.99
2015-10-09T02:28:15.975Z,99.99
2015-10-09T02:28:28.335Z,99.99
2015-10-09T02:28:40.694Z,99.99
2015-10-09T02:28:53.069Z,99.99
2015-10-09T02:29:05.427Z,99.99
2015-10-09T02:29:17.802Z,99.99
2015-10-09T02:29:30.177Z,99.99
2015-10-09T02:29:42.552Z,99.99
2015-10-09T02:29:54.943Z,99.99
2015-10-09T02:30:07.349Z,99.99
2015-10-09T02:30:19.755Z,99.99
2015-10-09T02:30:32.146Z,99.99
2015-10-09T02:30:44.521Z,99.99
2015-10-09T02:30:56.896Z,99.99
2015-10-09T02:31:09.273Z,99.99
2015-10-09T02:31:21.632Z,99.99
2015-10-09T02:31:33.992Z,99.99
2015-10-09T02:31:46.367Z,99.99
2015-10-09T02:31:58.726Z,99.99
2015-10-09T02:32:11.101Z,99.99
2015-10-09T02:32:23.461Z,99.99
2015-10-09T02:32:35.836Z,99.99
2015-10-09T02:32:48.211Z,99.99
2015-10-09T02:33:00.570Z,99.99
2015-10-09T02:33:12.962Z,99.99
2015-10-09T02:33:25.368Z,99.99
2015-10-09T02:33:37.727Z,99.99
2015-10-09T02:33:50.087Z,99.99
2015-10-09T02:34:02.462Z,99.99
2015-10-09T02:34:14.822Z,99.99
2015-10-09T02:34:27.197Z,99.99
2015-10-09T02:34:39.572Z,99.99
2015-10-09T02:34:51.931Z,99.99
2015-10-09T02:35:04.306Z,99.99
2015-10-09T02:35:16.684Z,99.99
2015-10-09T02:35:29.059Z,99.99
2015-10-09T02:35:41.434Z,99.99
2015-10-09T02:35:53.809Z,99.99
2015-10-09T02:36:06.169Z,99.99
2015-10-09T02:36:18.531Z,99.99
2015-10-09T02:36:30.906Z,99.99
2015-10-09T02:36:43.265Z,99.99
2015-10-09T02:36:55.625Z,99.99
2015-10-09T02:37:07.984Z,99.99
2015-10-09T02:37:20.361Z,99.99
2015-10-09T02:37:32.736Z,99.99
2015-10-09T02:37:45.111Z,99.99
2015-10-09T02:37:57.517Z,99.99
2015-10-09T02:38:09.892Z,99.99
2015-10-09T02:38:22.301Z,99.99
2015-10-09T02:38:34.707Z,99.99
2015-10-09T02:38:46.926Z,99.99
2015-10-09T02:38:59.285Z,99.99
2015-10-09T02:39:11.660Z,99.99